createdAt,value
2019-05-03T00:01:12.809Z,87.50
2019-05-03T00:03:44.592Z,87.30
2019-05-03T00:06:15.253Z,90.20
2019-05-03T00:08:45.806Z,90.80
2019-05-03T00:11:16.337Z,91.20
2019-05-03T00:13:46.900Z,91.10
2019-05-03T00:16:34.047Z,91.40
2019-05-03T00:19:04.852Z,91.70
2019-05-03T00:21:37.127Z,91.70
2019-05-03T00:24:07.786Z,91.30
2019-05-03T00:26:38.633Z,91.60
2019-05-03T00:29:09.166Z,91.50
2019-05-03T00:31:39.872Z,91.50
2019-05-03T00:34:18.023Z,91.60
2019-05-03T00:36:52.972Z,91.80
2019-05-03T00:39:27.720Z,91.80
2019-05-03T00:41:58.255Z,91.90
2019-05-03T00:44:28.811Z,92.00
2019-05-03T00:47:01.773Z,91.90
2019-05-03T00:49:32.115Z,92.20
2019-05-03T00:52:02.832Z,92.40
2019-05-03T00:54:33.439Z,92.80
2019-05-03T00:57:04.147Z,93.20
2019-05-03T00:59:34.708Z,93.60
2019-05-03T01:02:05.359Z,93.20
2019-05-03T01:04:36.019Z,93.30
2019-05-03T01:07:06.609Z,93.30
2019-05-03T01:09:37.245Z,93.10
2019-05-03T01:12:07.930Z,93.20
2019-05-03T01:14:39.843Z,92.30
2019-05-03T01:17:11.764Z,93.10
2019-05-03T01:19:42.698Z,92.90
2019-05-03T01:22:13.330Z,93.30
2019-05-03T01:24:44.156Z,93.40
2019-05-03T01:27:14.769Z,93.60
2019-05-03T01:29:45.359Z,94.10
2019-05-03T01:32:15.955Z,94.80
2019-05-03T01:34:46.560Z,95.20
2019-05-03T01:37:17.125Z,95.90
2019-05-03T01:39:47.735Z,96.30
2019-05-03T01:42:18.327Z,96.80
2019-05-03T01:44:49.202Z,96.70
2019-05-03T01:47:21.916Z,96.90
2019-05-03T01:50:02.874Z,96.90
2019-05-03T01:52:35.102Z,97.00
2019-05-03T01:55:06.436Z,96.80
2019-05-03T01:57:37.122Z,96.70
2019-05-03T02:00:11.672Z,97.00
2019-05-03T02:03:01.691Z,96.80
2019-05-03T02:05:51.941Z,96.80
2019-05-03T02:08:41.732Z,96.80
2019-05-03T02:11:30.014Z,96.60
2019-05-03T02:14:18.444Z,96.80
2019-05-03T02:17:07.004Z,96.80
2019-05-03T02:19:55.414Z,96.30
2019-05-03T02:22:43.871Z,96.30
2019-05-03T02:25:32.329Z,96.70
2019-05-03T02:28:22.018Z,96.20
2019-05-03T02:31:13.387Z,96.10
2019-05-03T02:34:03.249Z,95.80
2019-05-03T02:36:53.490Z,95.70
2019-05-03T02:39:23.141Z,96.10
2019-05-03T02:41:59.770Z,95.80
2019-05-03T02:44:26.758Z,95.40
2019-05-03T02:46:59.202Z,95.50
2019-05-03T02:49:40.805Z,95.00
2019-05-03T02:52:14.995Z,95.10
2019-05-03T02:54:46.466Z,95.20
2019-05-03T02:57:17.194Z,95.00
2019-05-03T02:59:49.807Z,95.30
2019-05-03T03:02:20.076Z,95.10
2019-05-03T03:07:47.101Z,94.60
2019-05-03T03:10:18.776Z,95.00
2019-05-03T03:12:49.787Z,95.30
2019-05-03T03:15:20.313Z,95.30
2019-05-03T03:17:50.901Z,95.60
2019-05-03T03:20:21.549Z,95.40
2019-05-03T03:22:52.121Z,95.20
2019-05-03T03:25:25.783Z,95.50
2019-05-03T03:27:58.918Z,95.20
2019-05-03T03:30:39.516Z,95.50
2019-05-03T03:33:17.178Z,94.90
2019-05-03T03:35:48.806Z,95.10
2019-05-03T03:38:18.451Z,95.20
2019-05-03T03:40:49.122Z,95.10
2019-05-03T03:43:19.677Z,94.90
2019-05-03T03:45:50.919Z,95.10
2019-05-03T03:48:21.597Z,94.60
2019-05-03T03:50:52.251Z,94.70
2019-05-03T03:53:23.289Z,94.70
2019-05-03T03:55:56.360Z,94.40
2019-05-03T03:58:27.390Z,94.20
2019-05-03T04:00:58.059Z,94.30
2019-05-03T04:03:28.693Z,94.50
2019-05-03T04:05:59.075Z,94.20
2019-05-03T04:08:29.699Z,94.50
2019-05-03T04:11:00.314Z,94.30
2019-05-03T04:13:30.843Z,94.10
2019-05-03T04:16:09.329Z,93.80
2019-05-03T04:18:55.133Z,93.70
2019-05-03T04:21:25.771Z,94.00
2019-05-03T04:23:56.539Z,94.10
2019-05-03T04:26:29.824Z,94.10
2019-05-03T04:28:59.268Z,94.60
2019-05-03T04:31:30.030Z,94.40
2019-05-03T04:34:00.613Z,94.00
2019-05-03T04:36:31.236Z,93.90
2019-05-03T04:39:02.232Z,93.80
2019-05-03T04:41:35.711Z,93.60
2019-05-03T04:44:07.975Z,93.90
2019-05-03T04:46:38.517Z,93.70
2019-05-03T04:49:08.989Z,94.00
2019-05-03T04:51:39.949Z,93.20
2019-05-03T04:54:28.579Z,93.80
2019-05-03T04:56:59.138Z,94.00
2019-05-03T04:59:29.784Z,94.10
2019-05-03T05:02:00.721Z,94.20
2019-05-03T05:04:31.261Z,94.20
2019-05-03T05:07:01.674Z,94.20
2019-05-03T05:09:34.603Z,94.20
2019-05-03T05:12:05.774Z,94.00
2019-05-03T05:14:37.137Z,94.00
2019-05-03T05:17:09.006Z,93.70
2019-05-03T05:19:44.627Z,93.90
2019-05-03T05:22:21.020Z,94.10
2019-05-03T05:24:51.898Z,94.40
2019-05-03T05:27:25.616Z,94.50
2019-05-03T05:29:57.330Z,94.00
2019-05-03T05:32:27.883Z,94.40
2019-05-03T05:34:58.616Z,93.90
2019-05-03T05:37:29.323Z,93.20
2019-05-03T05:39:59.836Z,93.00
2019-05-03T05:42:30.446Z,93.40
2019-05-03T05:45:01.111Z,93.30
2019-05-03T05:47:34.564Z,92.70
2019-05-03T05:50:08.445Z,93.40
2019-05-03T05:52:39.069Z,93.30
2019-05-03T05:55:26.577Z,93.10
2019-05-03T05:58:15.669Z,92.90
2019-05-03T06:01:05.530Z,92.20
2019-05-03T06:03:55.082Z,92.20
2019-05-03T06:06:45.135Z,92.50
2019-05-03T06:09:34.454Z,92.00
2019-05-03T06:12:06.591Z,91.20
2019-05-03T06:14:39.926Z,91.40
2019-05-03T06:17:24.525Z,90.70
2019-05-03T06:19:56.990Z,91.00
2019-05-03T06:22:29.158Z,91.30
2019-05-03T06:25:10.186Z,90.50
2019-05-03T06:27:40.864Z,90.30
2019-05-03T06:30:14.865Z,90.80
2019-05-03T06:32:45.117Z,90.20
2019-05-03T06:35:15.684Z,90.20
2019-05-03T06:37:46.879Z,89.80
2019-05-03T06:40:17.898Z,90.00
2019-05-03T06:42:54.124Z,88.20
2019-05-03T06:45:20.696Z,87.10
2019-05-03T06:47:51.618Z,86.50
2019-05-03T06:50:25.268Z,87.00
2019-05-03T06:52:54.813Z,87.00
2019-05-03T06:55:25.568Z,86.90
2019-05-03T06:57:56.223Z,86.40
2019-05-03T07:00:46.543Z,87.10
2019-05-03T07:03:30.989Z,88.10
2019-05-03T07:06:12.270Z,89.90
2019-05-03T07:08:47.284Z,89.00
2019-05-03T07:11:18.058Z,87.70
2019-05-03T07:13:48.584Z,87.30
2019-05-03T07:16:19.395Z,89.90
2019-05-03T07:18:49.937Z,89.60
2019-05-03T07:21:20.640Z,86.80
2019-05-03T07:23:51.330Z,90.50
2019-05-03T07:26:21.877Z,87.10
2019-05-03T07:28:54.414Z,85.50
2019-05-03T07:31:25.518Z,92.90
2019-05-03T07:33:56.340Z,93.60
2019-05-03T07:36:28.370Z,94.20
2019-05-03T07:38:59.108Z,93.40
2019-05-03T07:41:29.813Z,94.00
2019-05-03T07:44:00.558Z,94.20
2019-05-03T07:46:31.841Z,94.10
2019-05-03T07:49:02.523Z,93.90
2019-05-03T07:51:34.809Z,93.20
2019-05-03T07:54:05.707Z,93.90
2019-05-03T07:56:41.746Z,94.20
2019-05-03T07:59:12.359Z,94.30
2019-05-03T08:01:47.470Z,94.30
2019-05-03T08:04:29.814Z,94.20
2019-05-03T08:07:00.448Z,93.50
2019-05-03T08:09:31.059Z,90.90
2019-05-03T08:12:01.905Z,90.10
2019-05-03T08:14:32.477Z,90.70
2019-05-03T08:17:04.890Z,92.70
2019-05-03T08:19:36.078Z,92.10
2019-05-03T08:22:06.717Z,90.80
2019-05-03T08:24:37.266Z,90.30
2019-05-03T08:27:09.038Z,89.90
2019-05-03T08:29:39.670Z,90.70
2019-05-03T08:32:29.712Z,90.70
2019-05-03T08:35:18.324Z,88.90
2019-05-03T08:37:51.835Z,89.30
2019-05-03T08:40:24.552Z,90.40
2019-05-03T08:42:55.639Z,90.50
2019-05-03T08:45:26.219Z,91.50
2019-05-03T08:47:56.928Z,91.80
2019-05-03T08:50:27.791Z,92.00
2019-05-03T08:52:58.321Z,93.00
2019-05-03T08:55:31.290Z,92.30
2019-05-03T08:58:01.079Z,91.10
2019-05-03T09:00:34.995Z,91.20
2019-05-03T09:03:05.395Z,90.80
2019-05-03T09:05:36.129Z,90.20
2019-05-03T09:08:06.887Z,87.90
2019-05-03T09:10:57.358Z,85.60
2019-05-03T09:13:30.019Z,83.50
2019-05-03T09:16:00.727Z,88.50
2019-05-03T09:18:31.825Z,88.90
2019-05-03T09:21:05.115Z,90.10
2019-05-03T09:23:36.006Z,91.20
2019-05-03T09:26:06.656Z,89.30
2019-05-03T09:28:37.595Z,87.90
2019-05-03T09:31:08.240Z,83.70
2019-05-03T09:33:38.846Z,82.00
2019-05-03T09:36:09.354Z,81.50
2019-05-03T09:38:40.513Z,83.90
2019-05-03T09:41:11.384Z,81.00
2019-05-03T09:43:41.964Z,87.20
2019-05-03T09:46:14.397Z,88.60
2019-05-03T09:48:45.521Z,91.50
2019-05-03T09:51:16.513Z,90.20
2019-05-03T09:53:48.853Z,90.30
2019-05-03T09:56:21.388Z,91.30
2019-05-03T09:58:51.981Z,91.70
2019-05-03T10:01:25.569Z,90.20
2019-05-03T10:03:56.016Z,86.10
2019-05-03T10:06:28.273Z,86.10
2019-05-03T10:08:58.988Z,83.50
2019-05-03T10:11:29.644Z,86.80
2019-05-03T10:14:00.410Z,85.00
2019-05-03T10:16:34.999Z,83.60
2019-05-03T10:19:04.934Z,84.70
2019-05-03T10:21:37.187Z,86.00
2019-05-03T10:24:07.717Z,85.30
2019-05-03T10:26:38.285Z,85.70
2019-05-03T10:29:08.973Z,87.30
2019-05-03T10:31:44.953Z,85.80
2019-05-03T10:34:15.926Z,88.60
2019-05-03T10:36:46.574Z,89.40
2019-05-03T10:39:17.397Z,89.70
2019-05-03T10:41:48.143Z,88.40
2019-05-03T10:44:19.576Z,85.90
2019-05-03T10:46:50.307Z,89.80
2019-05-03T10:49:21.119Z,88.30
2019-05-03T10:51:54.811Z,90.20
2019-05-03T10:54:25.934Z,90.00
2019-05-03T10:57:07.234Z,88.70
2019-05-03T10:59:38.316Z,88.30
2019-05-03T11:02:16.476Z,90.80
2019-05-03T11:04:47.690Z,90.10
2019-05-03T11:07:18.265Z,90.40
2019-05-03T11:09:52.412Z,90.00
2019-05-03T11:12:21.444Z,90.20
2019-05-03T11:14:52.325Z,90.40
2019-05-03T11:17:23.075Z,91.20
2019-05-03T11:19:54.718Z,90.70
2019-05-03T11:22:25.829Z,91.80
2019-05-03T11:24:56.957Z,92.80
2019-05-03T11:27:32.049Z,95.50
2019-05-03T11:30:04.833Z,94.20
2019-05-03T11:32:36.905Z,97.20
2019-05-03T11:35:25.436Z,97.50
2019-05-03T11:37:57.816Z,97.80
2019-05-03T11:40:29.630Z,98.00
2019-05-03T11:43:02.147Z,98.00
2019-05-03T11:45:35.391Z,98.20
2019-05-03T11:48:06.683Z,99.10
2019-05-03T11:50:37.695Z,98.40
2019-05-03T11:53:08.446Z,99.20
2019-05-03T11:55:39.235Z,99.90
2019-05-03T11:58:20.625Z,99.80
2019-05-03T12:01:11.138Z,99.90
2019-05-03T12:03:35.539Z,99.20
2019-05-03T12:06:06.942Z,98.80
2019-05-03T12:08:37.767Z,99.10
2019-05-03T12:11:08.890Z,97.30
2019-05-03T12:13:40.882Z,97.40
2019-05-03T12:16:17.347Z,98.10
2019-05-03T12:18:56.615Z,99.90
2019-05-03T12:21:29.216Z,99.90
2019-05-03T12:24:01.449Z,99.90
2019-05-03T12:26:41.577Z,99.90
2019-05-03T12:29:05.401Z,99.90
2019-05-03T12:31:40.263Z,99.90
2019-05-03T12:34:08.647Z,99.90
2019-05-03T12:36:39.548Z,99.90
2019-05-03T12:39:23.124Z,99.90
2019-05-03T12:41:42.869Z,99.90
2019-05-03T12:44:15.284Z,99.90
2019-05-03T12:46:45.852Z,99.90
2019-05-03T12:49:16.562Z,99.90
2019-05-03T12:51:47.141Z,99.90
2019-05-03T12:54:18.058Z,99.40
2019-05-03T12:56:50.328Z,98.20
2019-05-03T12:59:23.141Z,98.50
2019-05-03T13:01:55.783Z,99.40
2019-05-03T13:04:28.784Z,99.70
2019-05-03T13:07:01.290Z,99.80
2019-05-03T13:09:31.860Z,99.90
2019-05-03T13:12:02.845Z,99.90
2019-05-03T13:14:34.604Z,99.90
2019-05-03T13:17:05.369Z,99.90
2019-05-03T13:19:36.113Z,99.90
2019-05-03T13:22:07.117Z,99.90
2019-05-03T13:24:37.912Z,99.90
2019-05-03T13:27:09.066Z,99.90
2019-05-03T13:29:40.405Z,99.90
2019-05-03T13:32:11.324Z,99.90
2019-05-03T13:34:42.049Z,99.90
2019-05-03T13:37:14.981Z,99.90
2019-05-03T13:39:45.323Z,99.90
2019-05-03T13:42:17.186Z,99.90
2019-05-03T13:44:48.112Z,99.90
2019-05-03T13:47:18.779Z,99.90
2019-05-03T13:49:50.136Z,99.90
2019-05-03T13:52:21.132Z,99.40
2019-05-03T13:54:52.069Z,99.60
2019-05-03T13:57:24.616Z,99.90
2019-05-03T13:59:55.540Z,99.70
2019-05-03T14:02:26.333Z,99.60
2019-05-03T14:04:57.037Z,99.50
2019-05-03T14:07:27.980Z,99.10
2019-05-03T14:09:58.791Z,99.10
2019-05-03T14:12:29.620Z,93.40
2019-05-03T14:15:00.261Z,95.50
2019-05-03T14:17:30.969Z,97.80
2019-05-03T14:20:09.182Z,99.90
2019-05-03T14:22:41.378Z,99.90
2019-05-03T14:25:12.276Z,99.90
2019-05-03T14:27:42.923Z,99.90
2019-05-03T14:30:14.616Z,99.90
2019-05-03T14:32:45.974Z,99.90
2019-05-03T14:35:17.121Z,99.90
2019-05-03T14:37:48.050Z,99.90
2019-05-03T14:40:18.740Z,99.90
2019-05-03T14:42:49.670Z,99.90
2019-05-03T14:45:22.425Z,99.90
2019-05-03T14:47:54.751Z,99.90
2019-05-03T14:50:26.859Z,99.90
2019-05-03T14:52:57.634Z,99.90
2019-05-03T14:55:46.438Z,99.90
2019-05-03T14:58:35.876Z,99.90
2019-05-03T15:01:24.790Z,99.90
2019-05-03T15:04:15.165Z,99.90
2019-05-03T15:07:05.876Z,99.10
2019-05-03T15:09:55.274Z,99.70
2019-05-03T15:12:45.181Z,99.80
2019-05-03T15:15:37.499Z,99.20
2019-05-03T15:18:29.540Z,99.90
2019-05-03T15:21:22.276Z,99.80
2019-05-03T15:24:15.492Z,99.90
2019-05-03T15:27:07.741Z,99.90
2019-05-03T15:30:01.445Z,99.80
2019-05-03T15:33:00.533Z,94.70
2019-05-03T15:35:49.912Z,98.10
2019-05-03T15:38:42.043Z,98.60
2019-05-03T15:41:34.462Z,98.40
2019-05-03T15:44:28.320Z,98.10
2019-05-03T15:47:21.985Z,98.20
2019-05-03T15:50:15.526Z,98.30
2019-05-03T15:53:09.995Z,98.80
2019-05-03T15:56:07.015Z,98.60
2019-05-03T15:58:58.758Z,98.80
2019-05-03T16:01:55.172Z,98.80
2019-05-03T16:04:46.523Z,98.20
2019-05-03T16:07:39.154Z,98.00
2019-05-03T16:10:29.707Z,96.90
2019-05-03T16:13:21.523Z,96.80
2019-05-03T16:16:10.423Z,97.10
2019-05-03T16:18:59.215Z,97.60
2019-05-03T16:21:48.155Z,97.70
2019-05-03T16:24:36.638Z,97.50
2019-05-03T16:27:25.294Z,97.90
2019-05-03T16:30:15.961Z,98.60
2019-05-03T16:33:04.903Z,98.20
2019-05-03T16:35:54.911Z,97.90
2019-05-03T16:38:44.977Z,98.20
2019-05-03T16:41:35.278Z,98.10
2019-05-03T16:44:24.381Z,98.50
2019-05-03T16:47:15.695Z,97.60
2019-05-03T16:50:06.186Z,97.40
2019-05-03T16:52:54.986Z,96.90
2019-05-03T16:55:44.352Z,98.30
2019-05-03T16:58:35.217Z,98.70
2019-05-03T17:01:24.424Z,99.10
2019-05-03T17:04:14.470Z,99.60
2019-05-03T17:07:03.074Z,99.60
2019-05-03T17:09:51.615Z,99.30
2019-05-03T17:12:41.610Z,99.50
2019-05-03T17:15:30.671Z,99.60
2019-05-03T17:18:19.620Z,99.50
2019-05-03T17:21:09.777Z,99.60
2019-05-03T17:23:58.496Z,99.30
2019-05-03T17:26:47.016Z,98.90
2019-05-03T17:29:35.627Z,99.60
2019-05-03T17:32:24.632Z,98.70
2019-05-03T17:35:14.494Z,98.90
2019-05-03T17:38:05.287Z,98.90
2019-05-03T17:40:55.622Z,99.50
2019-05-03T17:43:45.172Z,98.60
2019-05-03T17:46:34.802Z,98.90
2019-05-03T17:49:23.534Z,99.50
2019-05-03T17:52:14.374Z,99.80
2019-05-03T17:55:02.150Z,99.90
2019-05-03T17:57:51.351Z,99.70
2019-05-03T18:00:39.615Z,99.70
2019-05-03T18:03:28.462Z,99.80
2019-05-03T18:06:16.904Z,99.90
2019-05-03T18:09:06.009Z,99.70
2019-05-03T18:11:56.825Z,99.60
2019-05-03T18:14:45.397Z,99.90
2019-05-03T18:17:35.271Z,99.80
2019-05-03T18:20:25.566Z,99.60
2019-05-03T18:23:15.334Z,99.50
2019-05-03T18:26:05.289Z,99.40
2019-05-03T18:28:55.436Z,99.90
2019-05-03T18:31:44.849Z,99.90
2019-05-03T18:34:33.808Z,99.90
2019-05-03T18:37:24.503Z,99.90
2019-05-03T18:40:14.528Z,99.90
2019-05-03T18:43:04.530Z,99.90
2019-05-03T18:45:54.556Z,99.90
2019-05-03T18:48:44.651Z,99.90
2019-05-03T18:51:34.414Z,99.90
2019-05-03T18:54:24.681Z,99.90
2019-05-03T18:57:15.688Z,99.90
2019-05-03T19:00:08.106Z,99.90
2019-05-03T19:02:59.000Z,99.90
2019-05-03T19:05:47.498Z,99.90
2019-05-03T19:08:36.152Z,98.90
2019-05-03T19:11:24.785Z,99.10
2019-05-03T19:14:14.970Z,99.90
2019-05-03T19:17:05.236Z,99.90
2019-05-03T19:19:55.172Z,99.80
2019-05-03T19:22:44.252Z,99.90
2019-05-03T19:25:45.399Z,99.90
2019-05-03T19:28:24.933Z,99.80
2019-05-03T19:31:13.777Z,99.70
2019-05-03T19:34:03.157Z,98.70
2019-05-03T19:36:52.162Z,99.10
2019-05-03T19:39:41.326Z,99.50
2019-05-03T19:42:30.381Z,99.90
2019-05-03T19:45:19.375Z,99.90
2019-05-03T19:48:09.693Z,99.90
2019-05-03T19:50:59.088Z,99.90
2019-05-03T19:53:47.868Z,99.90
2019-05-03T19:56:36.698Z,99.80
2019-05-03T19:59:26.451Z,99.90
2019-05-03T20:02:16.146Z,99.50
2019-05-03T20:05:05.820Z,99.30
2019-05-03T20:07:57.089Z,99.70
2019-05-03T20:13:45.516Z,99.60
2019-05-03T20:16:34.804Z,99.90
2019-05-03T20:19:25.472Z,99.50
2019-05-03T20:22:15.141Z,99.90
2019-05-03T20:25:04.720Z,99.90
2019-05-03T20:27:55.835Z,99.90
2019-05-03T20:30:45.235Z,99.80
2019-05-03T20:33:35.247Z,99.40
2019-05-03T20:36:24.520Z,99.30
2019-05-03T20:38:55.379Z,99.60
2019-05-03T20:41:28.309Z,99.40
2019-05-03T20:44:14.247Z,98.80
2019-05-03T20:47:04.487Z,99.20
2019-05-03T20:49:35.781Z,99.10
2019-05-03T20:52:07.318Z,99.80
2019-05-03T20:54:38.331Z,99.20
2019-05-03T20:57:09.255Z,99.20
2019-05-03T20:59:45.879Z,99.20
2019-05-03T21:02:15.225Z,98.50
2019-05-03T21:04:46.089Z,98.80
2019-05-03T21:07:17.035Z,98.90
2019-05-03T21:09:47.809Z,99.00
2019-05-03T21:12:18.682Z,98.80
2019-05-03T21:14:49.393Z,98.70
2019-05-03T21:17:37.995Z,98.70
2019-05-03T21:20:27.246Z,98.60
2019-05-03T21:22:57.876Z,98.60
2019-05-03T21:25:30.330Z,98.80
2019-05-03T21:28:01.154Z,98.40
2019-05-03T21:30:32.909Z,98.60
2019-05-03T21:33:05.400Z,98.50
2019-05-03T21:35:41.559Z,98.60
2019-05-03T21:38:08.909Z,98.70
2019-05-03T21:40:40.665Z,98.50
2019-05-03T21:43:15.150Z,98.30
2019-05-03T21:45:48.423Z,98.60
2019-05-03T21:48:21.182Z,97.90
2019-05-03T21:50:51.946Z,98.60
2019-05-03T21:53:25.126Z,98.70
2019-05-03T21:55:55.949Z,98.40
2019-05-03T21:58:27.534Z,98.60
2019-05-03T22:01:04.934Z,98.60
2019-05-03T22:03:36.709Z,98.40
2019-05-03T22:06:07.513Z,98.20
2019-05-03T22:08:39.286Z,98.50
2019-05-03T22:11:10.213Z,98.40
2019-05-03T22:13:42.121Z,98.40
2019-05-03T22:16:29.960Z,98.40
2019-05-03T22:19:19.702Z,98.50
2019-05-03T22:22:08.385Z,98.50
2019-05-03T22:24:58.247Z,97.60
2019-05-03T22:27:46.779Z,98.30
2019-05-03T22:30:35.257Z,97.50
2019-05-03T22:33:06.386Z,97.30
2019-05-03T22:35:37.259Z,98.20
2019-05-03T22:38:08.337Z,98.60
2019-05-03T22:40:40.349Z,98.10
2019-05-03T22:43:14.764Z,98.10
2019-05-03T22:45:46.155Z,97.90
2019-05-03T22:48:16.853Z,97.60
2019-05-03T22:50:47.473Z,97.30
2019-05-03T22:53:18.307Z,97.40
2019-05-03T22:55:50.079Z,97.40
2019-05-03T22:58:20.613Z,96.80
2019-05-03T23:00:52.035Z,97.30
2019-05-03T23:03:24.868Z,97.30
2019-05-03T23:05:55.080Z,95.90
2019-05-03T23:08:25.942Z,95.80
2019-05-03T23:10:56.487Z,95.70
2019-05-03T23:13:26.904Z,95.40
2019-05-03T23:15:57.650Z,97.10
2019-05-03T23:18:28.262Z,96.00
2019-05-03T23:21:04.639Z,96.30
2019-05-03T23:23:51.472Z,96.00
2019-05-03T23:26:22.168Z,95.60
2019-05-03T23:28:54.983Z,95.90
2019-05-03T23:31:25.308Z,96.80
2019-05-03T23:33:56.465Z,97.90
2019-05-03T23:36:33.219Z,98.40
2019-05-03T23:38:59.153Z,98.30
2019-05-03T23:41:29.707Z,97.10
2019-05-03T23:44:00.292Z,98.40
2019-05-03T23:46:35.401Z,98.60
2019-05-03T23:49:05.954Z,98.50
2019-05-03T23:51:38.214Z,98.50
2019-05-03T23:54:08.949Z,98.70
2019-05-03T23:56:39.577Z,98.20
2019-05-03T23:59:10.268Z,98.40
